Terminal Aerodrome Forecast
Issued by NWS Albany, NY

Current Version | Previous Version | Text Only | Print | Product List | Glossary On
Versions: 1 2 3 4 5 6 7 8 9 10 11 12 13 14 15 16 17
000
FTUS41 KALY 110530
TAFALB
TAF
KALB 110530Z 1106/1206 VRB03KT P6SM SCT060 SCT250
     FM111500 29005KT P6SM SCT040 SCT100
     FM111800 30007KT P6SM BKN040 BKN100 PROB30 1121/1124 4SM -SHRA
      BR=

USA.gov is the U.S. government's official web portal to all federal, state and local government web resources and services.